sensor_id;sensor_type;location;lat;lon;timestamp;temperature;humidity
67194;DHT22;54121;53.508;49.422;2023-04-25T00:02:15;20.60;28.20
67194;DHT22;54121;53.508;49.422;2023-04-25T00:04:44;20.70;27.90
67194;DHT22;54121;53.508;49.422;2023-04-25T00:07:14;20.60;28.10
67194;DHT22;54121;53.508;49.422;2023-04-25T00:09:41;19.70;27.70
67194;DHT22;54121;53.508;49.422;2023-04-25T00:12:08;20.60;28.20
67194;DHT22;54121;53.508;49.422;2023-04-25T00:14:37;20.60;28.20
67194;DHT22;54121;53.508;49.422;2023-04-25T00:17:06;18.70;27.20
67194;DHT22;54121;53.508;49.422;2023-04-25T00:19:34;20.80;27.90
67194;DHT22;54121;53.508;49.422;2023-04-25T00:22:03;20.70;28.00
67194;DHT22;54121;53.508;49.422;2023-04-25T00:24:33;20.60;28.20
67194;DHT22;54121;53.508;49.422;2023-04-25T00:27:04;20.70;28.00
67194;DHT22;54121;53.508;49.422;2023-04-25T00:29:33;20.80;27.90
67194;DHT22;54121;53.508;49.422;2023-04-25T00:32:00;20.50;28.50
67194;DHT22;54121;53.508;49.422;2023-04-25T00:34:28;20.60;28.30
67194;DHT22;54121;53.508;49.422;2023-04-25T00:37:00;19.60;27.90
67194;DHT22;54121;53.508;49.422;2023-04-25T00:39:27;20.60;28.30
67194;DHT22;54121;53.508;49.422;2023-04-25T00:41:56;20.30;27.90
67194;DHT22;54121;53.508;49.422;2023-04-25T00:44:24;20.70;28.10
67194;DHT22;54121;53.508;49.422;2023-04-25T00:46:53;20.80;28.10
67194;DHT22;54121;53.508;49.422;2023-04-25T00:49:20;20.80;28.00
67194;DHT22;54121;53.508;49.422;2023-04-25T00:51:46;21.00;27.80
67194;DHT22;54121;53.508;49.422;2023-04-25T00:54:13;18.90;27.20
67194;DHT22;54121;53.508;49.422;2023-04-25T00:56:44;21.00;27.80
67194;DHT22;54121;53.508;49.422;2023-04-25T00:59:11;19.50;27.10
67194;DHT22;54121;53.508;49.422;2023-04-25T01:01:38;21.10;27.80
67194;DHT22;54121;53.508;49.422;2023-04-25T01:04:07;21.00;27.90
67194;DHT22;54121;53.508;49.422;2023-04-25T01:06:36;21.20;27.50
67194;DHT22;54121;53.508;49.422;2023-04-25T01:09:03;21.00;27.50
67194;DHT22;54121;53.508;49.422;2023-04-25T01:11:33;21.10;27.70
67194;DHT22;54121;53.508;49.422;2023-04-25T01:14:04;21.00;27.90
67194;DHT22;54121;53.508;49.422;2023-04-25T01:16:33;21.10;27.60
67194;DHT22;54121;53.508;49.422;2023-04-25T01:19:02;21.10;27.70
67194;DHT22;54121;53.508;49.422;2023-04-25T01:21:34;21.00;27.90
67194;DHT22;54121;53.508;49.422;2023-04-25T01:24:03;21.00;27.90
67194;DHT22;54121;53.508;49.422;2023-04-25T01:26:32;19.50;27.50
67194;DHT22;54121;53.508;49.422;2023-04-25T01:29:04;20.90;28.20
67194;DHT22;54121;53.508;49.422;2023-04-25T01:31:33;20.90;28.00
67194;DHT22;54121;53.508;49.422;2023-04-25T01:34:03;20.90;27.80
67194;DHT22;54121;53.508;49.422;2023-04-25T01:36:29;20.90;28.00
67194;DHT22;54121;53.508;49.422;2023-04-25T01:38:59;19.80;27.60
67194;DHT22;54121;53.508;49.422;2023-04-25T01:41:31;21.00;28.00
67194;DHT22;54121;53.508;49.422;2023-04-25T01:43:58;21.10;27.90
67194;DHT22;54121;53.508;49.422;2023-04-25T01:46:24;21.00;27.90
67194;DHT22;54121;53.508;49.422;2023-04-25T01:48:50;21.10;27.90
67194;DHT22;54121;53.508;49.422;2023-04-25T01:51:19;21.00;28.00
67194;DHT22;54121;53.508;49.422;2023-04-25T01:53:46;21.10;28.00
67194;DHT22;54121;53.508;49.422;2023-04-25T01:56:14;21.10;28.10
67194;DHT22;54121;53.508;49.422;2023-04-25T01:58:41;20.80;27.90
67194;DHT22;54121;53.508;49.422;2023-04-25T02:01:07;21.10;28.20
67194;DHT22;54121;53.508;49.422;2023-04-25T02:03:38;21.10;28.10
67194;DHT22;54121;53.508;49.422;2023-04-25T02:06:04;21.30;28.10
67194;DHT22;54121;53.508;49.422;2023-04-25T02:08:31;21.30;27.90
67194;DHT22;54121;53.508;49.422;2023-04-25T02:10:59;21.70;27.40
67194;DHT22;54121;53.508;49.422;2023-04-25T02:13:25;22.10;26.90
67194;DHT22;54121;53.508;49.422;2023-04-25T02:15:52;22.30;27.70
67194;DHT22;54121;53.508;49.422;2023-04-25T02:18:20;22.60;26.40
67194;DHT22;54121;53.508;49.422;2023-04-25T02:20:47;22.60;26.40
67194;DHT22;54121;53.508;49.422;2023-04-25T02:23:13;22.00;26.10
67194;DHT22;54121;53.508;49.422;2023-04-25T02:25:41;22.20;25.80
67194;DHT22;54121;53.508;49.422;2023-04-25T02:28:10;22.90;26.30
67194;DHT22;54121;53.508;49.422;2023-04-25T02:30:38;23.20;25.90
67194;DHT22;54121;53.508;49.422;2023-04-25T02:33:05;23.40;25.50
67194;DHT22;54121;53.508;49.422;2023-04-25T02:35:31;22.40;25.00
67194;DHT22;54121;53.508;49.422;2023-04-25T02:37:57;23.10;25.00
67194;DHT22;54121;53.508;49.422;2023-04-25T02:40:24;24.00;24.90
67194;DHT22;54121;53.508;49.422;2023-04-25T02:42:52;23.30;24.80
67194;DHT22;54121;53.508;49.422;2023-04-25T02:45:23;23.60;24.60
67194;DHT22;54121;53.508;49.422;2023-04-25T02:47:52;23.80;24.50
67194;DHT22;54121;53.508;49.422;2023-04-25T02:50:19;23.80;24.50
67194;DHT22;54121;53.508;49.422;2023-04-25T02:52:45;24.50;24.40
67194;DHT22;54121;53.508;49.422;2023-04-25T02:55:16;24.40;24.40
67194;DHT22;54121;53.508;49.422;2023-04-25T02:57:45;24.10;25.20
67194;DHT22;54121;53.508;49.422;2023-04-25T03:00:12;24.10;25.10
67194;DHT22;54121;53.508;49.422;2023-04-25T03:02:40;24.50;24.70
67194;DHT22;54121;53.508;49.422;2023-04-25T03:05:09;24.80;24.30
67194;DHT22;54121;53.508;49.422;2023-04-25T03:07:38;24.70;24.10
67194;DHT22;54121;53.508;49.422;2023-04-25T03:10:08;25.10;23.60
67194;DHT22;54121;53.508;49.422;2023-04-25T03:12:34;25.50;23.10
67194;DHT22;54121;53.508;49.422;2023-04-25T03:15:03;25.10;23.10
67194;DHT22;54121;53.508;49.422;2023-04-25T03:17:30;25.70;23.20
67194;DHT22;54121;53.508;49.422;2023-04-25T03:19:59;25.60;23.30
67194;DHT22;54121;53.508;49.422;2023-04-25T03:22:30;25.70;23.30
67194;DHT22;54121;53.508;49.422;2023-04-25T03:24:56;25.50;23.60
67194;DHT22;54121;53.508;49.422;2023-04-25T03:27:23;26.50;22.60
67194;DHT22;54121;53.508;49.422;2023-04-25T03:29:49;25.20;21.50
67194;DHT22;54121;53.508;49.422;2023-04-25T03:32:18;26.60;22.20
67194;DHT22;54121;53.508;49.422;2023-04-25T03:34:44;26.60;22.30
67194;DHT22;54121;53.508;49.422;2023-04-25T03:37:15;27.30;21.70
67194;DHT22;54121;53.508;49.422;2023-04-25T03:39:47;27.70;20.90
67194;DHT22;54121;53.508;49.422;2023-04-25T03:42:15;27.50;20.90
67194;DHT22;54121;53.508;49.422;2023-04-25T03:44:47;27.70;20.80
67194;DHT22;54121;53.508;49.422;2023-04-25T03:47:14;28.00;20.60
67194;DHT22;54121;53.508;49.422;2023-04-25T03:49:43;27.50;21.10
67194;DHT22;54121;53.508;49.422;2023-04-25T03:52:10;27.60;21.40
67194;DHT22;54121;53.508;49.422;2023-04-25T03:54:39;28.10;20.70
67194;DHT22;54121;53.508;49.422;2023-04-25T03:57:05;27.80;21.10
67194;DHT22;54121;53.508;49.422;2023-04-25T03:59:34;27.80;21.30
67194;DHT22;54121;53.508;49.422;2023-04-25T04:02:03;28.00;21.20
67194;DHT22;54121;53.508;49.422;2023-04-25T04:04:29;28.00;21.00
67194;DHT22;54121;53.508;49.422;2023-04-25T04:06:58;28.70;20.40
67194;DHT22;54121;53.508;49.422;2023-04-25T04:09:25;28.90;19.80
67194;DHT22;54121;53.508;49.422;2023-04-25T04:11:54;29.10;19.60
67194;DHT22;54121;53.508;49.422;2023-04-25T04:14:20;29.00;20.00
67194;DHT22;54121;53.508;49.422;2023-04-25T04:16:47;28.80;20.10
67194;DHT22;54121;53.508;49.422;2023-04-25T04:19:14;29.40;19.40
67194;DHT22;54121;53.508;49.422;2023-04-25T04:21:40;29.90;18.90
67194;DHT22;54121;53.508;49.422;2023-04-25T04:24:09;29.30;18.30
67194;DHT22;54121;53.508;49.422;2023-04-25T04:26:39;29.40;19.30
67194;DHT22;54121;53.508;49.422;2023-04-25T04:29:08;29.40;19.20
67194;DHT22;54121;53.508;49.422;2023-04-25T04:31:34;29.80;19.00
67194;DHT22;54121;53.508;49.422;2023-04-25T04:34:04;30.60;18.40
67194;DHT22;54121;53.508;49.422;2023-04-25T04:36:30;30.20;18.70
67194;DHT22;54121;53.508;49.422;2023-04-25T04:39:00;31.00;18.90
67194;DHT22;54121;53.508;49.422;2023-04-25T04:41:28;30.90;17.50
67194;DHT22;54121;53.508;49.422;2023-04-25T04:43:57;30.80;17.70
67194;DHT22;54121;53.508;49.422;2023-04-25T04:46:29;31.30;17.10
67194;DHT22;54121;53.508;49.422;2023-04-25T04:49:06;31.90;16.70
67194;DHT22;54121;53.508;49.422;2023-04-25T04:51:33;31.90;16.30
67194;DHT22;54121;53.508;49.422;2023-04-25T04:54:02;31.70;16.70
67194;DHT22;54121;53.508;49.422;2023-04-25T04:56:31;31.70;16.50
67194;DHT22;54121;53.508;49.422;2023-04-25T04:58:58;31.30;17.00
67194;DHT22;54121;53.508;49.422;2023-04-25T05:01:30;31.30;17.30
67194;DHT22;54121;53.508;49.422;2023-04-25T05:03:57;31.40;17.20
67194;DHT22;54121;53.508;49.422;2023-04-25T05:06:27;30.70;15.80
67194;DHT22;54121;53.508;49.422;2023-04-25T05:08:55;32.40;15.90
67194;DHT22;54121;53.508;49.422;2023-04-25T05:11:22;32.20;16.10
67194;DHT22;54121;53.508;49.422;2023-04-25T05:13:52;32.20;16.20
67194;DHT22;54121;53.508;49.422;2023-04-25T05:16:21;32.60;16.00
67194;DHT22;54121;53.508;49.422;2023-04-25T05:18:48;32.40;15.90
67194;DHT22;54121;53.508;49.422;2023-04-25T05:21:19;32.70;15.80
67194;DHT22;54121;53.508;49.422;2023-04-25T05:23:48;32.70;15.70
67194;DHT22;54121;53.508;49.422;2023-04-25T05:26:17;33.00;15.30
67194;DHT22;54121;53.508;49.422;2023-04-25T05:28:43;32.90;15.60
67194;DHT22;54121;53.508;49.422;2023-04-25T05:31:14;33.00;15.30
67194;DHT22;54121;53.508;49.422;2023-04-25T05:33:41;32.70;15.60
67194;DHT22;54121;53.508;49.422;2023-04-25T05:36:10;32.40;16.10
67194;DHT22;54121;53.508;49.422;2023-04-25T05:38:37;32.40;15.50
67194;DHT22;54121;53.508;49.422;2023-04-25T05:41:03;33.00;15.60
67194;DHT22;54121;53.508;49.422;2023-04-25T05:43:30;33.60;15.20
67194;DHT22;54121;53.508;49.422;2023-04-25T05:45:56;33.70;15.10
67194;DHT22;54121;53.508;49.422;2023-04-25T05:48:25;33.20;15.20
67194;DHT22;54121;53.508;49.422;2023-04-25T05:50:54;34.40;14.40
67194;DHT22;54121;53.508;49.422;2023-04-25T05:53:22;33.50;14.30
67194;DHT22;54121;53.508;49.422;2023-04-25T05:55:48;33.50;15.10
67194;DHT22;54121;53.508;49.422;2023-04-25T05:58:15;33.40;14.40
67194;DHT22;54121;53.508;49.422;2023-04-25T06:00:46;34.60;14.50
67194;DHT22;54121;53.508;49.422;2023-04-25T06:03:12;34.30;14.70
67194;DHT22;54121;53.508;49.422;2023-04-25T06:05:44;34.50;14.30
67194;DHT22;54121;53.508;49.422;2023-04-25T06:08:10;34.40;14.10
67194;DHT22;54121;53.508;49.422;2023-04-25T06:10:38;34.90;14.10
67194;DHT22;54121;53.508;49.422;2023-04-25T06:13:07;34.80;14.10
67194;DHT22;54121;53.508;49.422;2023-04-25T06:15:33;34.70;14.10
67194;DHT22;54121;53.508;49.422;2023-04-25T06:18:03;34.80;14.20
67194;DHT22;54121;53.508;49.422;2023-04-25T06:20:31;35.50;13.60
67194;DHT22;54121;53.508;49.422;2023-04-25T06:23:00;35.20;13.70
67194;DHT22;54121;53.508;49.422;2023-04-25T06:25:27;35.40;13.70
67194;DHT22;54121;53.508;49.422;2023-04-25T06:27:53;34.70;14.00
67194;DHT22;54121;53.508;49.422;2023-04-25T06:30:19;34.80;14.00
67194;DHT22;54121;53.508;49.422;2023-04-25T06:32:51;35.10;14.00
67194;DHT22;54121;53.508;49.422;2023-04-25T06:35:18;34.00;15.10
67194;DHT22;54121;53.508;49.422;2023-04-25T06:37:45;34.70;14.50
67194;DHT22;54121;53.508;49.422;2023-04-25T06:40:13;34.70;14.60
67194;DHT22;54121;53.508;49.422;2023-04-25T06:42:43;34.80;14.40
67194;DHT22;54121;53.508;49.422;2023-04-25T06:45:14;35.80;13.50
67194;DHT22;54121;53.508;49.422;2023-04-25T06:47:40;34.50;13.40
67194;DHT22;54121;53.508;49.422;2023-04-25T06:50:07;34.90;14.20
67194;DHT22;54121;53.508;49.422;2023-04-25T06:52:34;34.70;14.60
67194;DHT22;54121;53.508;49.422;2023-04-25T06:55:03;35.00;14.40
67194;DHT22;54121;53.508;49.422;2023-04-25T06:57:34;34.80;14.90
67194;DHT22;54121;53.508;49.422;2023-04-25T07:00:03;33.90;14.70
67194;DHT22;54121;53.508;49.422;2023-04-25T07:02:34;34.20;15.70
67194;DHT22;54121;53.508;49.422;2023-04-25T07:05:01;33.40;15.40
67194;DHT22;54121;53.508;49.422;2023-04-25T07:07:30;35.30;14.70
67194;DHT22;54121;53.508;49.422;2023-04-25T07:09:56;34.70;15.10
67194;DHT22;54121;53.508;49.422;2023-04-25T07:12:23;34.40;15.20
67194;DHT22;54121;53.508;49.422;2023-04-25T07:14:52;34.80;15.20
67194;DHT22;54121;53.508;49.422;2023-04-25T07:17:18;34.10;16.00
67194;DHT22;54121;53.508;49.422;2023-04-25T07:19:45;33.90;16.30
67194;DHT22;54121;53.508;49.422;2023-04-25T07:22:11;34.10;16.20
67194;DHT22;54121;53.508;49.422;2023-04-25T07:24:38;34.40;15.70
67194;DHT22;54121;53.508;49.422;2023-04-25T07:27:05;33.80;15.90
67194;DHT22;54121;53.508;49.422;2023-04-25T07:29:32;33.80;16.20
67194;DHT22;54121;53.508;49.422;2023-04-25T07:32:01;34.40;15.70
67194;DHT22;54121;53.508;49.422;2023-04-25T07:34:28;35.00;15.30
67194;DHT22;54121;53.508;49.422;2023-04-25T07:36:56;34.90;14.80
67194;DHT22;54121;53.508;49.422;2023-04-25T07:39:22;34.80;15.10
67194;DHT22;54121;53.508;49.422;2023-04-25T07:41:49;34.50;15.00
67194;DHT22;54121;53.508;49.422;2023-04-25T07:44:15;34.60;15.30
67194;DHT22;54121;53.508;49.422;2023-04-25T07:46:42;34.60;14.90
67194;DHT22;54121;53.508;49.422;2023-04-25T07:49:08;34.20;14.00
67194;DHT22;54121;53.508;49.422;2023-04-25T07:51:35;34.00;16.00
67194;DHT22;54121;53.508;49.422;2023-04-25T07:54:06;34.90;15.20
67194;DHT22;54121;53.508;49.422;2023-04-25T07:56:37;35.60;14.20
67194;DHT22;54121;53.508;49.422;2023-04-25T07:59:06;35.10;14.20
67194;DHT22;54121;53.508;49.422;2023-04-25T08:01:33;34.90;14.50
67194;DHT22;54121;53.508;49.422;2023-04-25T08:04:02;34.20;14.00
67194;DHT22;54121;53.508;49.422;2023-04-25T08:06:28;35.20;14.30
67194;DHT22;54121;53.508;49.422;2023-04-25T08:08:57;34.50;14.90
67194;DHT22;54121;53.508;49.422;2023-04-25T08:11:23;35.60;13.90
67194;DHT22;54121;53.508;49.422;2023-04-25T08:13:49;35.30;14.30
67194;DHT22;54121;53.508;49.422;2023-04-25T08:16:18;35.00;14.70
67194;DHT22;54121;53.508;49.422;2023-04-25T08:18:46;35.30;14.80
67194;DHT22;54121;53.508;49.422;2023-04-25T08:21:13;35.00;14.70
67194;DHT22;54121;53.508;49.422;2023-04-25T08:23:42;35.80;13.70
67194;DHT22;54121;53.508;49.422;2023-04-25T08:26:08;35.30;14.00
67194;DHT22;54121;53.508;49.422;2023-04-25T08:28:39;34.90;14.20
67194;DHT22;54121;53.508;49.422;2023-04-25T08:31:08;34.70;14.70
67194;DHT22;54121;53.508;49.422;2023-04-25T08:33:34;35.30;14.40
67194;DHT22;54121;53.508;49.422;2023-04-25T08:36:00;34.20;13.50
67194;DHT22;54121;53.508;49.422;2023-04-25T08:38:29;35.70;14.00
67194;DHT22;54121;53.508;49.422;2023-04-25T08:40:58;34.80;14.50
67194;DHT22;54121;53.508;49.422;2023-04-25T08:43:28;34.60;15.00
67194;DHT22;54121;53.508;49.422;2023-04-25T08:46:00;34.30;15.50
67194;DHT22;54121;53.508;49.422;2023-04-25T08:48:32;35.80;14.30
67194;DHT22;54121;53.508;49.422;2023-04-25T08:51:02;35.80;14.00
67194;DHT22;54121;53.508;49.422;2023-04-25T08:53:30;34.60;15.30
67194;DHT22;54121;53.508;49.422;2023-04-25T08:56:00;33.80;16.20
67194;DHT22;54121;53.508;49.422;2023-04-25T08:58:32;34.50;16.60
67194;DHT22;54121;53.508;49.422;2023-04-25T09:01:01;34.20;15.80
67194;DHT22;54121;53.508;49.422;2023-04-25T09:03:30;33.50;14.80
67194;DHT22;54121;53.508;49.422;2023-04-25T09:05:59;34.80;15.20
67194;DHT22;54121;53.508;49.422;2023-04-25T09:08:26;35.10;15.20
67194;DHT22;54121;53.508;49.422;2023-04-25T09:10:55;35.20;15.20
67194;DHT22;54121;53.508;49.422;2023-04-25T09:13:25;35.20;15.30
67194;DHT22;54121;53.508;49.422;2023-04-25T09:15:57;34.00;16.10
67194;DHT22;54121;53.508;49.422;2023-04-25T09:18:24;33.70;16.30
67194;DHT22;54121;53.508;49.422;2023-04-25T09:20:55;34.30;15.60
67194;DHT22;54121;53.508;49.422;2023-04-25T09:23:22;34.70;16.10
67194;DHT22;54121;53.508;49.422;2023-04-25T09:25:50;35.30;15.60
67194;DHT22;54121;53.508;49.422;2023-04-25T09:28:22;35.40;15.20
67194;DHT22;54121;53.508;49.422;2023-04-25T09:30:55;35.70;15.20
67194;DHT22;54121;53.508;49.422;2023-04-25T09:33:28;36.40;14.30
67194;DHT22;54121;53.508;49.422;2023-04-25T09:36:07;36.40;14.70
67194;DHT22;54121;53.508;49.422;2023-04-25T09:38:43;36.00;14.60
67194;DHT22;54121;53.508;49.422;2023-04-25T09:41:10;36.10;14.70
67194;DHT22;54121;53.508;49.422;2023-04-25T09:43:44;35.90;15.00
67194;DHT22;54121;53.508;49.422;2023-04-25T09:46:13;35.70;15.00
67194;DHT22;54121;53.508;49.422;2023-04-25T09:48:43;35.60;15.40
67194;DHT22;54121;53.508;49.422;2023-04-25T09:51:14;35.20;15.80
67194;DHT22;54121;53.508;49.422;2023-04-25T09:53:41;35.40;15.30
67194;DHT22;54121;53.508;49.422;2023-04-25T09:56:12;35.10;15.60
67194;DHT22;54121;53.508;49.422;2023-04-25T09:58:39;34.80;15.50
67194;DHT22;54121;53.508;49.422;2023-04-25T10:01:08;34.00;16.10
67194;DHT22;54121;53.508;49.422;2023-04-25T10:03:38;34.50;15.50
67194;DHT22;54121;53.508;49.422;2023-04-25T10:06:16;34.30;15.70
67194;DHT22;54121;53.508;49.422;2023-04-25T10:08:49;33.10;16.40
67194;DHT22;54121;53.508;49.422;2023-04-25T10:11:19;33.10;16.70
67194;DHT22;54121;53.508;49.422;2023-04-25T10:13:49;33.20;16.60
67194;DHT22;54121;53.508;49.422;2023-04-25T10:16:16;33.00;17.10
67194;DHT22;54121;53.508;49.422;2023-04-25T10:18:48;33.00;17.20
67194;DHT22;54121;53.508;49.422;2023-04-25T10:21:16;32.50;18.30
67194;DHT22;54121;53.508;49.422;2023-04-25T10:23:49;32.90;17.80
67194;DHT22;54121;53.508;49.422;2023-04-25T10:26:18;32.40;18.30
67194;DHT22;54121;53.508;49.422;2023-04-25T10:29:01;32.30;19.10
67194;DHT22;54121;53.508;49.422;2023-04-25T10:31:31;32.70;18.30
67194;DHT22;54121;53.508;49.422;2023-04-25T10:34:00;32.60;18.60
67194;DHT22;54121;53.508;49.422;2023-04-25T10:36:32;33.00;18.40
67194;DHT22;54121;53.508;49.422;2023-04-25T10:39:02;32.60;18.90
67194;DHT22;54121;53.508;49.422;2023-04-25T10:42:07;32.10;19.50
67194;DHT22;54121;53.508;49.422;2023-04-25T10:44:27;32.00;19.40
67194;DHT22;54121;53.508;49.422;2023-04-25T10:46:55;32.80;18.70
67194;DHT22;54121;53.508;49.422;2023-04-25T10:54:55;32.30;19.50
67194;DHT22;54121;53.508;49.422;2023-04-25T10:57:31;32.70;19.20
67194;DHT22;54121;53.508;49.422;2023-04-25T11:02:45;31.80;19.70
67194;DHT22;54121;53.508;49.422;2023-04-25T11:05:16;32.60;19.20
67194;DHT22;54121;53.508;49.422;2023-04-25T11:07:48;32.50;18.40
67194;DHT22;54121;53.508;49.422;2023-04-25T11:10:19;32.20;19.40
67194;DHT22;54121;53.508;49.422;2023-04-25T11:12:46;33.10;19.00
67194;DHT22;54121;53.508;49.422;2023-04-25T11:15:13;32.90;18.80
67194;DHT22;54121;53.508;49.422;2023-04-25T11:17:43;32.50;19.40
67194;DHT22;54121;53.508;49.422;2023-04-25T11:20:12;32.70;19.40
67194;DHT22;54121;53.508;49.422;2023-04-25T11:22:40;31.70;18.90
67194;DHT22;54121;53.508;49.422;2023-04-25T11:25:12;32.00;20.20
67194;DHT22;54121;53.508;49.422;2023-04-25T11:27:54;32.20;20.00
67194;DHT22;54121;53.508;49.422;2023-04-25T11:30:24;31.90;19.50
67194;DHT22;54121;53.508;49.422;2023-04-25T11:32:55;32.10;20.30
67194;DHT22;54121;53.508;49.422;2023-04-25T11:35:21;32.50;19.90
67194;DHT22;54121;53.508;49.422;2023-04-25T11:37:53;32.80;19.60
67194;DHT22;54121;53.508;49.422;2023-04-25T11:40:22;32.90;19.40
67194;DHT22;54121;53.508;49.422;2023-04-25T11:42:48;32.50;20.10
67194;DHT22;54121;53.508;49.422;2023-04-25T11:45:16;33.20;19.60
67194;DHT22;54121;53.508;49.422;2023-04-25T11:47:47;33.40;19.00
67194;DHT22;54121;53.508;49.422;2023-04-25T11:50:16;33.40;18.80
67194;DHT22;54121;53.508;49.422;2023-04-25T11:52:44;33.40;19.20
67194;DHT22;54121;53.508;49.422;2023-04-25T11:55:18;32.80;19.60
67194;DHT22;54121;53.508;49.422;2023-04-25T11:57:50;32.30;20.40
67194;DHT22;54121;53.508;49.422;2023-04-25T12:00:19;31.00;20.30
67194;DHT22;54121;53.508;49.422;2023-04-25T12:02:47;31.60;21.30
67194;DHT22;54121;53.508;49.422;2023-04-25T12:05:23;31.50;21.40
67194;DHT22;54121;53.508;49.422;2023-04-25T12:07:50;31.40;21.70
67194;DHT22;54121;53.508;49.422;2023-04-25T12:10:17;31.50;21.90
67194;DHT22;54121;53.508;49.422;2023-04-25T12:12:45;31.40;22.00
67194;DHT22;54121;53.508;49.422;2023-04-25T12:17:42;29.60;21.10
67194;DHT22;54121;53.508;49.422;2023-04-25T12:20:14;31.40;22.10
67194;DHT22;54121;53.508;49.422;2023-04-25T12:22:42;29.70;21.60
67194;DHT22;54121;53.508;49.422;2023-04-25T12:25:33;30.10;21.60
67194;DHT22;54121;53.508;49.422;2023-04-25T12:30:54;30.90;22.40
67194;DHT22;54121;53.508;49.422;2023-04-25T12:33:27;30.50;23.30
67194;DHT22;54121;53.508;49.422;2023-04-25T12:36:00;30.90;22.90
67194;DHT22;54121;53.508;49.422;2023-04-25T12:38:41;30.90;22.70
67194;DHT22;54121;53.508;49.422;2023-04-25T12:41:08;31.00;22.50
67194;DHT22;54121;53.508;49.422;2023-04-25T12:43:35;30.50;23.30
67194;DHT22;54121;53.508;49.422;2023-04-25T12:46:01;30.80;23.10
67194;DHT22;54121;53.508;49.422;2023-04-25T12:48:28;31.00;23.50
67194;DHT22;54121;53.508;49.422;2023-04-25T12:50:55;31.00;23.60
67194;DHT22;54121;53.508;49.422;2023-04-25T12:53:22;30.00;22.20
67194;DHT22;54121;53.508;49.422;2023-04-25T12:55:49;30.70;24.10
67194;DHT22;54121;53.508;49.422;2023-04-25T12:58:19;30.30;25.40
67194;DHT22;54121;53.508;49.422;2023-04-25T13:00:46;28.30;25.50
67194;DHT22;54121;53.508;49.422;2023-04-25T13:03:12;29.40;26.60
67194;DHT22;54121;53.508;49.422;2023-04-25T13:05:39;28.80;25.60
67194;DHT22;54121;53.508;49.422;2023-04-25T13:08:08;30.20;25.50
67194;DHT22;54121;53.508;49.422;2023-04-25T13:10:38;29.50;25.10
67194;DHT22;54121;53.508;49.422;2023-04-25T13:13:07;30.10;27.30
67194;DHT22;54121;53.508;49.422;2023-04-25T13:15:37;30.60;25.80
67194;DHT22;54121;53.508;49.422;2023-04-25T13:18:06;29.60;27.30
67194;DHT22;54121;53.508;49.422;2023-04-25T13:20:36;27.70;27.80
67194;DHT22;54121;53.508;49.422;2023-04-25T13:23:07;28.70;26.70
67194;DHT22;54121;53.508;49.422;2023-04-25T13:25:34;28.80;25.80
67194;DHT22;54121;53.508;49.422;2023-04-25T13:28:02;29.80;26.00
67194;DHT22;54121;53.508;49.422;2023-04-25T13:30:32;30.60;25.60
67194;DHT22;54121;53.508;49.422;2023-04-25T13:32:58;28.70;26.90
67194;DHT22;54121;53.508;49.422;2023-04-25T13:35:29;29.50;26.60
67194;DHT22;54121;53.508;49.422;2023-04-25T13:37:56;29.50;27.40
67194;DHT22;54121;53.508;49.422;2023-04-25T13:40:23;29.80;27.10
67194;DHT22;54121;53.508;49.422;2023-04-25T13:42:49;30.70;25.60
67194;DHT22;54121;53.508;49.422;2023-04-25T13:45:17;29.40;25.20
67194;DHT22;54121;53.508;49.422;2023-04-25T13:47:48;30.00;26.20
67194;DHT22;54121;53.508;49.422;2023-04-25T13:50:15;30.00;26.60
67194;DHT22;54121;53.508;49.422;2023-04-25T13:52:44;30.10;26.60
67194;DHT22;54121;53.508;49.422;2023-04-25T13:55:11;30.20;25.80
67194;DHT22;54121;53.508;49.422;2023-04-25T13:57:40;30.10;26.30
67194;DHT22;54121;53.508;49.422;2023-04-25T14:00:09;29.80;27.00
67194;DHT22;54121;53.508;49.422;2023-04-25T14:02:37;30.00;27.20
67194;DHT22;54121;53.508;49.422;2023-04-25T14:05:04;30.50;24.50
67194;DHT22;54121;53.508;49.422;2023-04-25T14:07:33;30.40;26.20
67194;DHT22;54121;53.508;49.422;2023-04-25T14:10:01;30.00;27.50
67194;DHT22;54121;53.508;49.422;2023-04-25T14:12:27;29.90;27.20
67194;DHT22;54121;53.508;49.422;2023-04-25T14:14:57;30.70;27.10
67194;DHT22;54121;53.508;49.422;2023-04-25T14:17:25;31.00;26.40
67194;DHT22;54121;53.508;49.422;2023-04-25T14:19:55;31.20;26.20
67194;DHT22;54121;53.508;49.422;2023-04-25T14:22:21;29.90;28.80
67194;DHT22;54121;53.508;49.422;2023-04-25T14:24:48;29.20;29.30
67194;DHT22;54121;53.508;49.422;2023-04-25T14:27:18;28.80;29.20
67194;DHT22;54121;53.508;49.422;2023-04-25T14:29:44;28.90;29.30
67194;DHT22;54121;53.508;49.422;2023-04-25T14:32:11;29.20;28.50
67194;DHT22;54121;53.508;49.422;2023-04-25T14:34:40;27.50;29.80
67194;DHT22;54121;53.508;49.422;2023-04-25T14:37:07;27.90;29.90
67194;DHT22;54121;53.508;49.422;2023-04-25T14:39:33;28.40;30.00
67194;DHT22;54121;53.508;49.422;2023-04-25T14:42:00;28.80;29.80
67194;DHT22;54121;53.508;49.422;2023-04-25T14:44:31;28.70;29.90
67194;DHT22;54121;53.508;49.422;2023-04-25T14:46:58;28.30;30.50
67194;DHT22;54121;53.508;49.422;2023-04-25T14:49:24;27.90;31.30
67194;DHT22;54121;53.508;49.422;2023-04-25T14:51:54;28.10;31.40
67194;DHT22;54121;53.508;49.422;2023-04-25T14:54:20;28.30;30.30
67194;DHT22;54121;53.508;49.422;2023-04-25T14:56:47;28.60;30.80
67194;DHT22;54121;53.508;49.422;2023-04-25T14:59:16;28.70;29.80
67194;DHT22;54121;53.508;49.422;2023-04-25T15:01:42;27.60;29.00
67194;DHT22;54121;53.508;49.422;2023-04-25T15:04:10;28.20;30.00
67194;DHT22;54121;53.508;49.422;2023-04-25T15:06:40;29.30;29.20
67194;DHT22;54121;53.508;49.422;2023-04-25T15:09:07;28.10;29.60
67194;DHT22;54121;53.508;49.422;2023-04-25T15:11:37;28.40;30.40
67194;DHT22;54121;53.508;49.422;2023-04-25T15:14:04;28.60;30.40
67194;DHT22;54121;53.508;49.422;2023-04-25T15:16:33;27.90;31.00
67194;DHT22;54121;53.508;49.422;2023-04-25T15:18:59;29.00;29.60
67194;DHT22;54121;53.508;49.422;2023-04-25T15:21:31;27.70;31.10
67194;DHT22;54121;53.508;49.422;2023-04-25T15:24:02;27.90;31.90
67194;DHT22;54121;53.508;49.422;2023-04-25T15:26:29;28.70;29.80
67194;DHT22;54121;53.508;49.422;2023-04-25T15:28:58;28.40;30.70
67194;DHT22;54121;53.508;49.422;2023-04-25T15:31:29;27.60;31.00
67194;DHT22;54121;53.508;49.422;2023-04-25T15:33:58;27.40;32.30
67194;DHT22;54121;53.508;49.422;2023-04-25T15:36:27;27.00;32.50
67194;DHT22;54121;53.508;49.422;2023-04-25T15:38:56;27.10;33.30